createdAt,value
2017-08-01T10:53:34.545Z,63.20
2017-08-01T10:56:01.549Z,62.90
2017-08-01T10:58:28.724Z,63.20
2017-08-01T11:04:11.968Z,64.00
2017-08-01T11:06:39.041Z,62.80
2017-08-01T11:09:54.173Z,62.70
2017-08-01T11:12:20.856Z,62.30
2017-08-01T11:14:47.492Z,62.10
2017-08-01T11:17:14.205Z,62.10
2017-08-01T15:57:49.981Z,68.70
2017-08-01T16:03:24.082Z,66.10
2017-08-01T16:19:13.497Z,68.90
2017-08-01T16:21:42.069Z,69.10
2017-08-01T16:24:09.468Z,69.10
2017-08-01T16:26:36.205Z,69.20
2017-08-01T16:29:03.517Z,69.30
2017-08-01T16:31:30.220Z,69.30
2017-08-01T16:33:57.757Z,69.30
2017-08-01T16:36:24.438Z,69.40
2017-08-01T16:38:51.113Z,69.40
2017-08-01T16:41:17.800Z,69.50
2017-08-01T16:43:45.254Z,69.70
2017-08-01T16:46:12.541Z,69.70
2017-08-01T16:48:39.275Z,69.60
2017-08-01T16:51:05.955Z,69.60
2017-08-01T16:53:32.658Z,69.60
2017-08-01T16:55:59.333Z,69.50
2017-08-01T16:58:26.045Z,69.60
2017-08-01T17:00:52.714Z,69.70
2017-08-01T17:03:19.417Z,69.70
2017-08-01T17:05:46.093Z,69.70
2017-08-01T17:08:12.770Z,69.70
2017-08-01T17:10:39.469Z,69.70
2017-08-01T17:13:06.136Z,69.70
2017-08-01T17:15:32.828Z,69.70
2017-08-01T17:17:59.525Z,69.70
2017-08-01T17:20:27.349Z,69.80
2017-08-01T17:22:54.033Z,69.80
2017-08-01T17:25:20.745Z,69.80
2017-08-01T17:27:47.417Z,69.90
2017-08-01T17:30:14.487Z,69.80
2017-08-01T17:32:41.833Z,69.80
2017-08-01T17:35:08.506Z,69.80
2017-08-01T17:37:35.221Z,69.80
2017-08-01T17:40:01.885Z,69.90
2017-08-01T17:42:28.601Z,70.00
2017-08-01T17:44:55.279Z,70.00
2017-08-01T17:47:21.996Z,70.00
2017-08-01T17:49:48.664Z,70.00
2017-08-01T17:52:15.334Z,70.00
2017-08-01T17:54:42.008Z,70.00
2017-08-01T17:59:47.814Z,70.00
2017-08-01T18:02:14.481Z,70.00
2017-08-01T18:04:41.185Z,70.10
2017-08-01T18:07:07.860Z,70.00
2017-08-01T18:09:34.557Z,70.00
2017-08-01T18:12:01.225Z,70.00
2017-08-01T18:14:27.899Z,70.00
2017-08-01T18:16:54.965Z,69.90
2017-08-01T18:19:22.025Z,69.90
2017-08-01T18:21:48.704Z,70.00
2017-08-01T18:24:15.385Z,69.90
2017-08-01T18:26:42.081Z,69.90
2017-08-01T18:29:08.745Z,69.90
2017-08-01T18:31:35.460Z,69.90
2017-08-01T18:34:02.125Z,69.90
2017-08-01T18:36:41.077Z,69.90
2017-08-01T18:39:07.762Z,70.00
2017-08-01T18:41:34.469Z,70.00
2017-08-01T18:44:01.536Z,70.00
2017-08-01T18:46:28.201Z,70.00
2017-08-01T18:48:54.869Z,70.00
2017-08-01T18:51:21.540Z,70.00
2017-08-01T18:53:48.609Z,70.00
2017-08-01T18:56:15.277Z,70.00
2017-08-01T18:58:42.361Z,70.00
2017-08-01T19:01:09.120Z,70.10
2017-08-01T19:03:35.832Z,70.00
2017-08-01T19:06:02.501Z,70.10
2017-08-01T19:08:29.565Z,70.10
2017-08-01T19:10:59.480Z,70.10
2017-08-01T19:13:26.148Z,70.10
2017-08-01T19:15:52.826Z,70.10
2017-08-01T19:18:19.559Z,70.10
2017-08-01T19:20:46.231Z,70.10
2017-08-01T19:23:13.301Z,70.10
2017-08-01T19:25:40.026Z,70.10
2017-08-01T19:28:06.689Z,70.10
2017-08-01T19:30:33.353Z,70.10
2017-08-01T19:33:00.052Z,70.20
2017-08-01T19:35:26.721Z,70.20
2017-08-01T19:37:53.473Z,70.20
2017-08-01T19:40:20.145Z,70.20
2017-08-01T19:42:46.866Z,70.20
2017-08-01T19:45:13.561Z,70.20
2017-08-01T19:47:41.069Z,70.20
2017-08-01T19:50:07.740Z,70.20
2017-08-01T19:52:34.414Z,70.30
2017-08-01T19:55:01.089Z,70.30
2017-08-01T19:57:38.038Z,70.30
2017-08-01T20:00:04.718Z,70.30
2017-08-01T20:02:31.393Z,70.30
2017-08-01T20:04:58.096Z,70.30
2017-08-01T20:07:24.785Z,70.30
2017-08-01T20:09:51.480Z,70.30
2017-08-01T20:12:18.160Z,70.30
2017-08-01T20:14:46.025Z,70.40
2017-08-01T20:17:12.701Z,70.40
2017-08-01T20:19:39.364Z,70.40
2017-08-01T20:22:06.025Z,70.40
2017-08-01T20:24:32.697Z,70.40
2017-08-01T20:29:38.057Z,70.40
2017-08-01T20:32:05.153Z,70.40
2017-08-01T20:34:31.829Z,70.40
2017-08-01T20:36:58.497Z,70.40
2017-08-01T20:39:25.173Z,70.40
2017-08-01T20:41:51.846Z,70.40
2017-08-01T20:44:18.521Z,70.50
2017-08-01T20:46:45.189Z,70.50
2017-08-01T20:49:11.897Z,70.50
2017-08-01T20:51:38.574Z,70.40
2017-08-01T20:54:05.282Z,70.50
2017-08-01T20:56:31.957Z,70.40
2017-08-01T20:59:02.216Z,70.40
2017-08-01T21:01:28.885Z,70.50
2017-08-01T21:03:55.561Z,70.40
2017-08-01T21:06:22.229Z,70.50
2017-08-01T21:08:48.928Z,70.50
2017-08-01T21:11:15.597Z,70.50
2017-08-01T21:13:42.260Z,70.50
2017-08-01T21:16:08.938Z,70.50
2017-08-01T21:18:35.670Z,70.40
2017-08-01T21:21:02.365Z,70.50
2017-08-01T21:23:29.043Z,70.50
2017-08-01T21:25:55.754Z,70.50
2017-08-01T21:28:22.437Z,70.50
2017-08-01T21:30:49.114Z,70.50
2017-08-01T21:33:15.785Z,70.50
2017-08-01T21:35:42.481Z,70.50
2017-08-01T21:38:09.145Z,70.60
2017-08-01T21:40:35.837Z,70.60
2017-08-01T21:43:02.517Z,70.60
2017-08-01T21:45:29.185Z,70.60
2017-08-01T21:47:55.895Z,70.60
2017-08-01T21:50:22.557Z,70.50
2017-08-01T21:52:49.252Z,70.50
2017-08-01T21:55:15.939Z,70.60
2017-08-01T21:57:42.638Z,70.60
2017-08-01T22:00:09.338Z,70.60
2017-08-01T22:02:36.020Z,70.70
2017-08-01T22:05:02.690Z,70.60
2017-08-01T22:07:29.353Z,70.60
2017-08-01T22:09:56.030Z,70.70
2017-08-01T22:12:22.701Z,70.70
2017-08-01T22:14:49.409Z,70.80
2017-08-01T22:17:16.085Z,70.70
2017-08-01T22:19:42.797Z,70.70
2017-08-01T22:22:09.473Z,70.70
2017-08-01T22:24:36.149Z,70.70
2017-08-01T22:29:42.013Z,70.70
2017-08-01T22:32:08.711Z,70.70
2017-08-01T22:34:35.405Z,70.70
2017-08-01T22:37:02.097Z,70.70
2017-08-01T22:39:28.768Z,70.70
2017-08-01T22:41:55.488Z,70.70
2017-08-01T22:44:22.170Z,70.70
2017-08-01T22:46:48.869Z,70.70
2017-08-01T22:49:15.546Z,70.60
2017-08-01T22:51:42.213Z,70.70
2017-08-01T22:54:08.896Z,70.70
2017-08-01T22:59:12.476Z,70.70
2017-08-01T23:01:39.546Z,70.60
2017-08-01T23:04:06.253Z,70.70
2017-08-01T23:06:32.921Z,70.70
2017-08-01T23:08:59.626Z,70.70
2017-08-01T23:11:26.316Z,70.70
2017-08-01T23:13:52.977Z,70.70
2017-08-01T23:16:19.641Z,70.70
2017-08-01T23:18:46.313Z,70.70
2017-08-01T23:21:12.986Z,70.70
2017-08-01T23:23:39.666Z,70.70
2017-08-01T23:26:06.361Z,70.70
2017-08-01T23:28:33.042Z,70.80
2017-08-01T23:30:59.721Z,70.70
2017-08-01T23:33:26.392Z,70.70
2017-08-01T23:35:53.092Z,70.70
2017-08-01T23:38:20.148Z,70.70
2017-08-01T23:40:47.210Z,70.60
2017-08-01T23:43:13.885Z,70.70
2017-08-01T23:45:40.553Z,70.70
2017-08-01T23:48:07.226Z,70.70
2017-08-01T23:50:33.905Z,70.70
2017-08-01T23:53:01.650Z,70.80
2017-08-01T23:55:28.333Z,70.80
2017-08-01T23:57:55.013Z,70.80
